sensor_id;sensor_type;location;lat;lon;timestamp;P1;durP1;ratioP1;P2;durP2;ratioP2
17197;SDS011;8715;51.010;6.812;2022-08-01T00:00:03;552.13;;;529.25;;
17197;SDS011;8715;51.010;6.812;2022-08-01T00:02:30;560.65;;;537.55;;
17197;SDS011;8715;51.010;6.812;2022-08-01T00:04:56;561.10;;;538.40;;
17197;SDS011;8715;51.010;6.812;2022-08-01T00:07:21;550.65;;;528.47;;
17197;SDS011;8715;51.010;6.812;2022-08-01T00:09:46;552.33;;;529.20;;
17197;SDS011;8715;51.010;6.812;2022-08-01T00:12:12;559.13;;;535.77;;
17197;SDS011;8715;51.010;6.812;2022-08-01T00:14:37;561.97;;;539.10;;
17197;SDS011;8715;51.010;6.812;2022-08-01T00:17:02;547.20;;;525.08;;
17197;SDS011;8715;51.010;6.812;2022-08-01T00:19:28;545.47;;;523.17;;
17197;SDS011;8715;51.010;6.812;2022-08-01T00:21:53;549.00;;;526.53;;
17197;SDS011;8715;51.010;6.812;2022-08-01T00:24:19;542.53;;;520.67;;
17197;SDS011;8715;51.010;6.812;2022-08-01T00:26:44;539.47;;;517.37;;
17197;SDS011;8715;51.010;6.812;2022-08-01T00:29:09;538.17;;;516.33;;
17197;SDS011;8715;51.010;6.812;2022-08-01T00:31:35;542.23;;;520.00;;
17197;SDS011;8715;51.010;6.812;2022-08-01T00:34:00;538.92;;;517.28;;
17197;SDS011;8715;51.010;6.812;2022-08-01T00:36:25;554.47;;;531.83;;
17197;SDS011;8715;51.010;6.812;2022-08-01T00:38:51;560.97;;;537.97;;
17197;SDS011;8715;51.010;6.812;2022-08-01T00:41:16;541.60;;;519.37;;
17197;SDS011;8715;51.010;6.812;2022-08-01T00:43:41;553.50;;;530.72;;
17197;SDS011;8715;51.010;6.812;2022-08-01T00:46:07;533.28;;;511.42;;
17197;SDS011;8715;51.010;6.812;2022-08-01T00:48:32;550.20;;;527.75;;
17197;SDS011;8715;51.010;6.812;2022-08-01T00:50:57;542.33;;;520.47;;
17197;SDS011;8715;51.010;6.812;2022-08-01T00:53:23;550.05;;;527.75;;
17197;SDS011;8715;51.010;6.812;2022-08-01T00:55:50;559.13;;;536.40;;
17197;SDS011;8715;51.010;6.812;2022-08-01T00:58:15;553.30;;;528.55;;
17197;SDS011;8715;51.010;6.812;2022-08-01T01:00:40;546.33;;;523.58;;
17197;SDS011;8715;51.010;6.812;2022-08-01T01:03:06;545.97;;;523.87;;
17197;SDS011;8715;51.010;6.812;2022-08-01T01:05:32;539.30;;;517.45;;
17197;SDS011;8715;51.010;6.812;2022-08-01T01:08:04;546.88;;;524.67;;
17197;SDS011;8715;51.010;6.812;2022-08-01T01:10:46;541.35;;;518.92;;
17197;SDS011;8715;51.010;6.812;2022-08-01T01:13:18;537.03;;;514.83;;
17197;SDS011;8715;51.010;6.812;2022-08-01T01:15:49;533.28;;;511.42;;
17197;SDS011;8715;51.010;6.812;2022-08-01T01:23:46;548.55;;;525.95;;
17197;SDS011;8715;51.010;6.812;2022-08-01T01:31:55;543.15;;;520.83;;
17197;SDS011;8715;51.010;6.812;2022-08-01T01:34:24;539.63;;;517.63;;
17197;SDS011;8715;51.010;6.812;2022-08-01T01:36:51;549.05;;;526.90;;
17197;SDS011;8715;51.010;6.812;2022-08-01T01:39:17;532.78;;;510.50;;
17197;SDS011;8715;51.010;6.812;2022-08-01T01:41:43;535.03;;;512.88;;
17197;SDS011;8715;51.010;6.812;2022-08-01T01:44:09;537.35;;;515.10;;
17197;SDS011;8715;51.010;6.812;2022-08-01T01:46:36;543.13;;;521.00;;
17197;SDS011;8715;51.010;6.812;2022-08-01T01:49:02;518.70;;;497.52;;
17197;SDS011;8715;51.010;6.812;2022-08-01T01:51:27;532.33;;;510.50;;
17197;SDS011;8715;51.010;6.812;2022-08-01T01:53:53;521.35;;;500.13;;
17197;SDS011;8715;51.010;6.812;2022-08-01T01:56:20;543.80;;;521.40;;
17197;SDS011;8715;51.010;6.812;2022-08-01T01:58:48;545.17;;;522.83;;
17197;SDS011;8715;51.010;6.812;2022-08-01T02:01:17;557.92;;;534.85;;
17197;SDS011;8715;51.010;6.812;2022-08-01T02:03:43;526.95;;;505.60;;
17197;SDS011;8715;51.010;6.812;2022-08-01T02:06:08;521.10;;;499.67;;
17197;SDS011;8715;51.010;6.812;2022-08-01T02:08:34;533.80;;;512.08;;
17197;SDS011;8715;51.010;6.812;2022-08-01T02:11:00;541.80;;;519.67;;
17197;SDS011;8715;51.010;6.812;2022-08-01T02:13:46;534.72;;;512.90;;
17197;SDS011;8715;51.010;6.812;2022-08-01T02:16:16;541.78;;;519.45;;
17197;SDS011;8715;51.010;6.812;2022-08-01T02:18:42;550.72;;;527.97;;
17197;SDS011;8715;51.010;6.812;2022-08-01T02:21:08;543.33;;;521.10;;
17197;SDS011;8715;51.010;6.812;2022-08-01T02:23:37;544.55;;;521.95;;
17197;SDS011;8715;51.010;6.812;2022-08-01T02:26:04;533.97;;;511.98;;
17197;SDS011;8715;51.010;6.812;2022-08-01T02:28:36;541.58;;;519.35;;
17197;SDS011;8715;51.010;6.812;2022-08-01T02:31:07;535.13;;;513.20;;
17197;SDS011;8715;51.010;6.812;2022-08-01T02:33:40;533.60;;;511.38;;
17197;SDS011;8715;51.010;6.812;2022-08-01T02:36:08;537.97;;;515.90;;
17197;SDS011;8715;51.010;6.812;2022-08-01T02:38:36;542.47;;;520.10;;
17197;SDS011;8715;51.010;6.812;2022-08-01T02:41:05;544.70;;;522.63;;
17197;SDS011;8715;51.010;6.812;2022-08-01T02:43:34;547.30;;;525.42;;
17197;SDS011;8715;51.010;6.812;2022-08-01T02:46:06;529.80;;;508.13;;
17197;SDS011;8715;51.010;6.812;2022-08-01T02:48:33;527.70;;;506.08;;
17197;SDS011;8715;51.010;6.812;2022-08-01T02:51:00;540.50;;;518.47;;
17197;SDS011;8715;51.010;6.812;2022-08-01T02:53:26;539.13;;;517.20;;
17197;SDS011;8715;51.010;6.812;2022-08-01T02:55:52;538.78;;;517.03;;
17197;SDS011;8715;51.010;6.812;2022-08-01T02:58:19;551.88;;;527.13;;
17197;SDS011;8715;51.010;6.812;2022-08-01T03:00:45;530.88;;;509.10;;
17197;SDS011;8715;51.010;6.812;2022-08-01T03:03:13;530.92;;;508.92;;
17197;SDS011;8715;51.010;6.812;2022-08-01T03:05:39;545.33;;;522.83;;
17197;SDS011;8715;51.010;6.812;2022-08-01T03:08:05;535.90;;;514.30;;
17197;SDS011;8715;51.010;6.812;2022-08-01T03:10:31;534.03;;;512.40;;
17197;SDS011;8715;51.010;6.812;2022-08-01T03:12:59;525.78;;;504.30;;
17197;SDS011;8715;51.010;6.812;2022-08-01T03:15:25;530.88;;;509.67;;
17197;SDS011;8715;51.010;6.812;2022-08-01T03:17:52;532.00;;;509.98;;
17197;SDS011;8715;51.010;6.812;2022-08-01T03:20:18;529.38;;;507.45;;
17197;SDS011;8715;51.010;6.812;2022-08-01T03:22:45;529.78;;;508.08;;
17197;SDS011;8715;51.010;6.812;2022-08-01T03:25:12;531.60;;;509.92;;
17197;SDS011;8715;51.010;6.812;2022-08-01T03:27:39;527.83;;;506.58;;
17197;SDS011;8715;51.010;6.812;2022-08-01T03:30:05;535.38;;;513.22;;
17197;SDS011;8715;51.010;6.812;2022-08-01T03:32:31;529.70;;;507.65;;
17197;SDS011;8715;51.010;6.812;2022-08-01T03:34:56;539.38;;;517.38;;
17197;SDS011;8715;51.010;6.812;2022-08-01T03:37:26;535.13;;;513.25;;
17197;SDS011;8715;51.010;6.812;2022-08-01T03:40:04;529.28;;;507.40;;
17197;SDS011;8715;51.010;6.812;2022-08-01T03:42:32;525.17;;;503.75;;
17197;SDS011;8715;51.010;6.812;2022-08-01T03:45:10;529.25;;;507.52;;
17197;SDS011;8715;51.010;6.812;2022-08-01T03:47:37;533.45;;;511.52;;
17197;SDS011;8715;51.010;6.812;2022-08-01T03:50:08;529.17;;;507.02;;
17197;SDS011;8715;51.010;6.812;2022-08-01T03:52:34;526.22;;;504.45;;
17197;SDS011;8715;51.010;6.812;2022-08-01T03:55:04;537.50;;;515.20;;
17197;SDS011;8715;51.010;6.812;2022-08-01T03:57:32;532.67;;;511.17;;
17197;SDS011;8715;51.010;6.812;2022-08-01T03:59:58;532.30;;;510.25;;
17197;SDS011;8715;51.010;6.812;2022-08-01T04:02:25;546.00;;;523.58;;
17197;SDS011;8715;51.010;6.812;2022-08-01T04:04:52;523.80;;;501.88;;
17197;SDS011;8715;51.010;6.812;2022-08-01T04:07:24;536.58;;;514.20;;
17197;SDS011;8715;51.010;6.812;2022-08-01T04:09:55;522.45;;;500.70;;
17197;SDS011;8715;51.010;6.812;2022-08-01T04:12:21;548.78;;;526.25;;
17197;SDS011;8715;51.010;6.812;2022-08-01T04:14:47;522.85;;;501.20;;
17197;SDS011;8715;51.010;6.812;2022-08-01T04:17:13;533.00;;;510.98;;
17197;SDS011;8715;51.010;6.812;2022-08-01T04:19:40;525.92;;;504.38;;
17197;SDS011;8715;51.010;6.812;2022-08-01T04:22:05;534.10;;;512.30;;
17197;SDS011;8715;51.010;6.812;2022-08-01T04:24:32;530.53;;;508.73;;
17197;SDS011;8715;51.010;6.812;2022-08-01T04:26:59;540.63;;;518.28;;
17197;SDS011;8715;51.010;6.812;2022-08-01T04:29:25;526.20;;;504.65;;
17197;SDS011;8715;51.010;6.812;2022-08-01T04:31:52;538.80;;;516.15;;
17197;SDS011;8715;51.010;6.812;2022-08-01T04:34:20;543.22;;;520.33;;
17197;SDS011;8715;51.010;6.812;2022-08-01T04:36:47;539.78;;;517.25;;
17197;SDS011;8715;51.010;6.812;2022-08-01T04:39:12;538.45;;;516.03;;
17197;SDS011;8715;51.010;6.812;2022-08-01T04:41:38;518.92;;;497.08;;
17197;SDS011;8715;51.010;6.812;2022-08-01T04:44:04;545.25;;;522.25;;
17197;SDS011;8715;51.010;6.812;2022-08-01T04:46:31;538.03;;;515.20;;
17197;SDS011;8715;51.010;6.812;2022-08-01T04:48:58;531.05;;;508.73;;
17197;SDS011;8715;51.010;6.812;2022-08-01T04:51:25;526.35;;;504.10;;
17197;SDS011;8715;51.010;6.812;2022-08-01T04:53:50;521.35;;;499.30;;
17197;SDS011;8715;51.010;6.812;2022-08-01T04:56:16;518.67;;;496.65;;
17197;SDS011;8715;51.010;6.812;2022-08-01T04:58:41;553.00;;;527.70;;
17197;SDS011;8715;51.010;6.812;2022-08-01T05:01:07;533.03;;;510.25;;
17197;SDS011;8715;51.010;6.812;2022-08-01T05:03:33;525.80;;;503.50;;
17197;SDS011;8715;51.010;6.812;2022-08-01T05:05:59;533.60;;;510.98;;
17197;SDS011;8715;51.010;6.812;2022-08-01T05:08:24;539.75;;;516.58;;
17197;SDS011;8715;51.010;6.812;2022-08-01T05:10:49;546.10;;;522.53;;
17197;SDS011;8715;51.010;6.812;2022-08-01T05:13:15;525.63;;;503.10;;
17197;SDS011;8715;51.010;6.812;2022-08-01T05:15:40;545.45;;;521.75;;
17197;SDS011;8715;51.010;6.812;2022-08-01T05:18:06;538.30;;;514.90;;
17197;SDS011;8715;51.010;6.812;2022-08-01T05:20:31;520.97;;;498.95;;
17197;SDS011;8715;51.010;6.812;2022-08-01T05:22:57;543.55;;;520.15;;
17197;SDS011;8715;51.010;6.812;2022-08-01T05:25:22;535.77;;;513.07;;
17197;SDS011;8715;51.010;6.812;2022-08-01T05:27:48;531.60;;;508.70;;
17197;SDS011;8715;51.010;6.812;2022-08-01T05:30:13;536.92;;;513.67;;
17197;SDS011;8715;51.010;6.812;2022-08-01T05:32:39;537.13;;;513.88;;
17197;SDS011;8715;51.010;6.812;2022-08-01T05:35:05;537.70;;;514.40;;
17197;SDS011;8715;51.010;6.812;2022-08-01T05:37:32;523.72;;;501.67;;
17197;SDS011;8715;51.010;6.812;2022-08-01T05:39:57;540.13;;;516.70;;
17197;SDS011;8715;51.010;6.812;2022-08-01T05:42:22;533.50;;;510.77;;
17197;SDS011;8715;51.010;6.812;2022-08-01T05:44:48;527.77;;;505.37;;
17197;SDS011;8715;51.010;6.812;2022-08-01T05:47:14;537.38;;;514.28;;
17197;SDS011;8715;51.010;6.812;2022-08-01T05:49:40;548.27;;;525.27;;
17197;SDS011;8715;51.010;6.812;2022-08-01T05:52:05;530.45;;;507.70;;
17197;SDS011;8715;51.010;6.812;2022-08-01T05:54:31;540.80;;;518.03;;
17197;SDS011;8715;51.010;6.812;2022-08-01T05:56:56;557.45;;;534.25;;
17197;SDS011;8715;51.010;6.812;2022-08-01T05:59:24;536.75;;;513.78;;
17197;SDS011;8715;51.010;6.812;2022-08-01T06:01:50;551.38;;;528.33;;
17197;SDS011;8715;51.010;6.812;2022-08-01T06:04:15;557.07;;;533.13;;
17197;SDS011;8715;51.010;6.812;2022-08-01T06:06:41;561.00;;;537.33;;
17197;SDS011;8715;51.010;6.812;2022-08-01T06:09:06;550.60;;;527.90;;
17197;SDS011;8715;51.010;6.812;2022-08-01T06:11:31;561.47;;;537.80;;
17197;SDS011;8715;51.010;6.812;2022-08-01T06:13:57;547.97;;;524.40;;
17197;SDS011;8715;51.010;6.812;2022-08-01T06:16:22;547.17;;;523.63;;
17197;SDS011;8715;51.010;6.812;2022-08-01T06:18:48;557.05;;;530.92;;
17197;SDS011;8715;51.010;6.812;2022-08-01T06:21:13;572.95;;;548.80;;
17197;SDS011;8715;51.010;6.812;2022-08-01T06:23:39;571.33;;;546.78;;
17197;SDS011;8715;51.010;6.812;2022-08-01T06:26:06;551.30;;;528.10;;
17197;SDS011;8715;51.010;6.812;2022-08-01T06:28:31;564.43;;;540.27;;
17197;SDS011;8715;51.010;6.812;2022-08-01T06:30:57;586.58;;;561.50;;
17197;SDS011;8715;51.010;6.812;2022-08-01T06:33:24;574.10;;;549.40;;
17197;SDS011;8715;51.010;6.812;2022-08-01T06:35:49;583.28;;;557.83;;
17197;SDS011;8715;51.010;6.812;2022-08-01T06:38:14;574.72;;;549.83;;
17197;SDS011;8715;51.010;6.812;2022-08-01T06:40:40;555.90;;;531.55;;
17197;SDS011;8715;51.010;6.812;2022-08-01T06:43:05;566.85;;;542.50;;
17197;SDS011;8715;51.010;6.812;2022-08-01T06:45:31;562.13;;;537.83;;
17197;SDS011;8715;51.010;6.812;2022-08-01T06:47:56;578.00;;;553.03;;
17197;SDS011;8715;51.010;6.812;2022-08-01T06:50:21;564.47;;;540.27;;
17197;SDS011;8715;51.010;6.812;2022-08-01T06:52:47;580.43;;;555.33;;
17197;SDS011;8715;51.010;6.812;2022-08-01T06:55:12;549.38;;;525.58;;
17197;SDS011;8715;51.010;6.812;2022-08-01T06:57:45;546.22;;;522.85;;
17197;SDS011;8715;51.010;6.812;2022-08-01T07:00:14;563.00;;;539.00;;
17197;SDS011;8715;51.010;6.812;2022-08-01T07:02:43;571.17;;;546.97;;
17197;SDS011;8715;51.010;6.812;2022-08-01T07:05:09;577.25;;;552.63;;
17197;SDS011;8715;51.010;6.812;2022-08-01T07:07:34;564.67;;;540.75;;
17197;SDS011;8715;51.010;6.812;2022-08-01T07:10:00;556.03;;;532.20;;
17197;SDS011;8715;51.010;6.812;2022-08-01T07:12:25;572.13;;;547.33;;
17197;SDS011;8715;51.010;6.812;2022-08-01T07:14:51;570.80;;;546.03;;
17197;SDS011;8715;51.010;6.812;2022-08-01T07:17:17;569.28;;;545.03;;
17197;SDS011;8715;51.010;6.812;2022-08-01T07:19:42;572.53;;;547.85;;
17197;SDS011;8715;51.010;6.812;2022-08-01T07:22:08;568.37;;;544.03;;
17197;SDS011;8715;51.010;6.812;2022-08-01T07:24:33;563.10;;;539.22;;
17197;SDS011;8715;51.010;6.812;2022-08-01T07:26:58;583.05;;;558.20;;
17197;SDS011;8715;51.010;6.812;2022-08-01T07:29:24;578.13;;;553.50;;
17197;SDS011;8715;51.010;6.812;2022-08-01T07:31:53;585.30;;;560.42;;
17197;SDS011;8715;51.010;6.812;2022-08-01T07:34:19;585.45;;;560.33;;
17197;SDS011;8715;51.010;6.812;2022-08-01T07:36:44;589.95;;;564.55;;
17197;SDS011;8715;51.010;6.812;2022-08-01T07:39:10;577.67;;;553.13;;
17197;SDS011;8715;51.010;6.812;2022-08-01T07:41:35;585.63;;;560.45;;
17197;SDS011;8715;51.010;6.812;2022-08-01T07:44:00;575.10;;;550.65;;
17197;SDS011;8715;51.010;6.812;2022-08-01T07:46:26;578.38;;;553.42;;
17197;SDS011;8715;51.010;6.812;2022-08-01T07:48:51;576.47;;;550.60;;
17197;SDS011;8715;51.010;6.812;2022-08-01T07:51:17;593.22;;;568.08;;
17197;SDS011;8715;51.010;6.812;2022-08-01T07:53:42;588.83;;;563.70;;
17197;SDS011;8715;51.010;6.812;2022-08-01T07:56:07;583.28;;;558.45;;
17197;SDS011;8715;51.010;6.812;2022-08-01T07:58:33;569.42;;;545.53;;
17197;SDS011;8715;51.010;6.812;2022-08-01T08:00:59;584.83;;;560.15;;
17197;SDS011;8715;51.010;6.812;2022-08-01T08:03:24;581.33;;;556.67;;
17197;SDS011;8715;51.010;6.812;2022-08-01T08:05:49;575.40;;;551.05;;
17197;SDS011;8715;51.010;6.812;2022-08-01T08:08:15;589.17;;;564.10;;
17197;SDS011;8715;51.010;6.812;2022-08-01T08:10:43;602.92;;;576.90;;
17197;SDS011;8715;51.010;6.812;2022-08-01T08:13:08;595.20;;;570.33;;
17197;SDS011;8715;51.010;6.812;2022-08-01T08:15:33;604.03;;;578.73;;
17197;SDS011;8715;51.010;6.812;2022-08-01T08:17:59;607.10;;;581.28;;
17197;SDS011;8715;51.010;6.812;2022-08-01T08:20:24;614.65;;;588.55;;
17197;SDS011;8715;51.010;6.812;2022-08-01T08:22:50;598.80;;;573.42;;
17197;SDS011;8715;51.010;6.812;2022-08-01T08:25:16;611.60;;;585.40;;
17197;SDS011;8715;51.010;6.812;2022-08-01T08:27:41;605.20;;;579.67;;
17197;SDS011;8715;51.010;6.812;2022-08-01T08:30:07;602.58;;;577.25;;
17197;SDS011;8715;51.010;6.812;2022-08-01T08:32:34;610.30;;;584.72;;
17197;SDS011;8715;51.010;6.812;2022-08-01T08:34:59;603.90;;;577.88;;
17197;SDS011;8715;51.010;6.812;2022-08-01T08:37:25;604.43;;;578.53;;
17197;SDS011;8715;51.010;6.812;2022-08-01T08:39:50;610.40;;;583.97;;
17197;SDS011;8715;51.010;6.812;2022-08-01T08:42:16;598.97;;;573.35;;
17197;SDS011;8715;51.010;6.812;2022-08-01T08:44:41;596.97;;;571.75;;
17197;SDS011;8715;51.010;6.812;2022-08-01T08:47:07;603.95;;;578.08;;
17197;SDS011;8715;51.010;6.812;2022-08-01T08:49:33;606.03;;;580.00;;
17197;SDS011;8715;51.010;6.812;2022-08-01T08:51:59;590.10;;;565.25;;
17197;SDS011;8715;51.010;6.812;2022-08-01T08:54:25;597.55;;;572.35;;
17197;SDS011;8715;51.010;6.812;2022-08-01T08:56:52;590.38;;;565.03;;
17197;SDS011;8715;51.010;6.812;2022-08-01T08:59:18;585.15;;;560.45;;
17197;SDS011;8715;51.010;6.812;2022-08-01T09:01:44;574.67;;;550.58;;
17197;SDS011;8715;51.010;6.812;2022-08-01T09:04:10;587.70;;;563.20;;
17197;SDS011;8715;51.010;6.812;2022-08-01T09:06:36;597.63;;;572.70;;
17197;SDS011;8715;51.010;6.812;2022-08-01T09:09:02;597.70;;;571.30;;
17197;SDS011;8715;51.010;6.812;2022-08-01T09:11:28;587.55;;;562.88;;
17197;SDS011;8715;51.010;6.812;2022-08-01T09:14:10;587.30;;;562.58;;
17197;SDS011;8715;51.010;6.812;2022-08-01T09:16:41;597.90;;;572.85;;
17197;SDS011;8715;51.010;6.812;2022-08-01T09:19:14;584.60;;;557.95;;
17197;SDS011;8715;51.010;6.812;2022-08-01T09:21:57;585.95;;;561.70;;
17197;SDS011;8715;51.010;6.812;2022-08-01T09:24:24;592.47;;;567.55;;
17197;SDS011;8715;51.010;6.812;2022-08-01T09:26:50;608.30;;;582.10;;
17197;SDS011;8715;51.010;6.812;2022-08-01T09:29:22;580.38;;;555.83;;
17197;SDS011;8715;51.010;6.812;2022-08-01T09:31:52;575.72;;;551.42;;
17197;SDS011;8715;51.010;6.812;2022-08-01T09:34:25;590.55;;;565.50;;
17197;SDS011;8715;51.010;6.812;2022-08-01T09:36:58;584.88;;;560.22;;
17197;SDS011;8715;51.010;6.812;2022-08-01T09:39:26;581.28;;;556.92;;
17197;SDS011;8715;51.010;6.812;2022-08-01T09:41:57;589.60;;;564.78;;
17197;SDS011;8715;51.010;6.812;2022-08-01T09:44:43;592.83;;;567.72;;
17197;SDS011;8715;51.010;6.812;2022-08-01T09:47:10;591.75;;;567.10;;
17197;SDS011;8715;51.010;6.812;2022-08-01T09:49:37;586.85;;;562.58;;
17197;SDS011;8715;51.010;6.812;2022-08-01T09:52:10;602.38;;;577.08;;
17197;SDS011;8715;51.010;6.812;2022-08-01T09:54:36;599.92;;;574.92;;
17197;SDS011;8715;51.010;6.812;2022-08-01T09:59:35;611.67;;;585.78;;
17197;SDS011;8715;51.010;6.812;2022-08-01T10:02:02;622.35;;;595.97;;
17197;SDS011;8715;51.010;6.812;2022-08-01T10:04:28;611.90;;;585.80;;
17197;SDS011;8715;51.010;6.812;2022-08-01T10:06:53;603.90;;;578.22;;
17197;SDS011;8715;51.010;6.812;2022-08-01T10:09:30;611.78;;;585.60;;
17197;SDS011;8715;51.010;6.812;2022-08-01T10:11:56;609.42;;;582.38;;
17197;SDS011;8715;51.010;6.812;2022-08-01T10:14:24;612.03;;;585.75;;
17197;SDS011;8715;51.010;6.812;2022-08-01T10:16:50;615.97;;;589.88;;
17197;SDS011;8715;51.010;6.812;2022-08-01T10:19:16;608.03;;;582.42;;
17197;SDS011;8715;51.010;6.812;2022-08-01T10:21:43;611.70;;;585.60;;
17197;SDS011;8715;51.010;6.812;2022-08-01T10:24:14;616.53;;;590.33;;
17197;SDS011;8715;51.010;6.812;2022-08-01T10:26:40;619.67;;;593.38;;
17197;SDS011;8715;51.010;6.812;2022-08-01T10:29:06;620.65;;;592.03;;
17197;SDS011;8715;51.010;6.812;2022-08-01T10:31:31;616.83;;;590.38;;
17197;SDS011;8715;51.010;6.812;2022-08-01T10:33:58;609.58;;;583.78;;
17197;SDS011;8715;51.010;6.812;2022-08-01T10:36:24;630.08;;;603.05;;
17197;SDS011;8715;51.010;6.812;2022-08-01T10:38:49;617.50;;;590.28;;
17197;SDS011;8715;51.010;6.812;2022-08-01T10:41:15;618.17;;;592.13;;
17197;SDS011;8715;51.010;6.812;2022-08-01T10:43:41;595.67;;;570.90;;
17197;SDS011;8715;51.010;6.812;2022-08-01T10:46:07;602.22;;;577.17;;
17197;SDS011;8715;51.010;6.812;2022-08-01T10:48:41;607.30;;;581.90;;
17197;SDS011;8715;51.010;6.812;2022-08-01T10:51:11;607.10;;;581.60;;
17197;SDS011;8715;51.010;6.812;2022-08-01T10:53:36;608.28;;;582.65;;
17197;SDS011;8715;51.010;6.812;2022-08-01T10:58:37;605.07;;;579.77;;
17197;SDS011;8715;51.010;6.812;2022-08-01T11:01:15;610.20;;;584.67;;
17197;SDS011;8715;51.010;6.812;2022-08-01T11:03:41;605.90;;;580.22;;
17197;SDS011;8715;51.010;6.812;2022-08-01T11:06:15;619.88;;;593.53;;
17197;SDS011;8715;51.010;6.812;2022-08-01T11:08:41;614.38;;;588.28;;
17197;SDS011;8715;51.010;6.812;2022-08-01T11:11:07;626.38;;;599.88;;
17197;SDS011;8715;51.010;6.812;2022-08-01T11:16:30;607.28;;;581.72;;
17197;SDS011;8715;51.010;6.812;2022-08-01T11:18:56;612.72;;;586.67;;
17197;SDS011;8715;51.010;6.812;2022-08-01T11:21:22;616.03;;;589.78;;
17197;SDS011;8715;51.010;6.812;2022-08-01T11:35:13;636.45;;;609.63;;
17197;SDS011;8715;51.010;6.812;2022-08-01T11:37:39;630.38;;;603.60;;
17197;SDS011;8715;51.010;6.812;2022-08-01T11:45:48;628.70;;;601.55;;
17197;SDS011;8715;51.010;6.812;2022-08-01T11:48:20;621.45;;;594.22;;
17197;SDS011;8715;51.010;6.812;2022-08-01T11:50:52;626.83;;;599.60;;
17197;SDS011;8715;51.010;6.812;2022-08-01T11:53:19;617.85;;;591.38;;
17197;SDS011;8715;51.010;6.812;2022-08-01T11:55:48;614.15;;;587.90;;
17197;SDS011;8715;51.010;6.812;2022-08-01T11:58:16;613.85;;;587.42;;
17197;SDS011;8715;51.010;6.812;2022-08-01T12:00:52;623.63;;;596.83;;
17197;SDS011;8715;51.010;6.812;2022-08-01T12:03:23;601.38;;;576.08;;
17197;SDS011;8715;51.010;6.812;2022-08-01T12:05:50;617.60;;;591.22;;
17197;SDS011;8715;51.010;6.812;2022-08-01T12:08:24;617.42;;;591.13;;
17197;SDS011;8715;51.010;6.812;2022-08-01T12:10:52;614.60;;;588.17;;
17197;SDS011;8715;51.010;6.812;2022-08-01T12:13:18;609.03;;;583.47;;
17197;SDS011;8715;51.010;6.812;2022-08-01T12:15:45;611.67;;;585.78;;
17197;SDS011;8715;51.010;6.812;2022-08-01T12:18:10;617.40;;;590.85;;
17197;SDS011;8715;51.010;6.812;2022-08-01T12:20:37;612.17;;;586.25;;
17197;SDS011;8715;51.010;6.812;2022-08-01T12:23:07;601.70;;;576.38;;
17197;SDS011;8715;51.010;6.812;2022-08-01T12:25:34;607.03;;;581.00;;
17197;SDS011;8715;51.010;6.812;2022-08-01T12:28:01;604.28;;;579.10;;
17197;SDS011;8715;51.010;6.812;2022-08-01T12:30:30;614.20;;;587.83;;
17197;SDS011;8715;51.010;6.812;2022-08-01T12:32:56;614.25;;;588.17;;
17197;SDS011;8715;51.010;6.812;2022-08-01T12:35:22;616.25;;;589.42;;
17197;SDS011;8715;51.010;6.812;2022-08-01T12:37:59;616.35;;;590.38;;
17197;SDS011;8715;51.010;6.812;2022-08-01T12:40:30;630.33;;;603.47;;
17197;SDS011;8715;51.010;6.812;2022-08-01T12:42:58;618.33;;;591.85;;
17197;SDS011;8715;51.010;6.812;2022-08-01T12:45:25;613.58;;;587.53;;
17197;SDS011;8715;51.010;6.812;2022-08-01T12:47:52;609.25;;;583.13;;
17197;SDS011;8715;51.010;6.812;2022-08-01T12:50:19;610.92;;;584.60;;
17197;SDS011;8715;51.010;6.812;2022-08-01T12:52:46;620.78;;;594.35;;
17197;SDS011;8715;51.010;6.812;2022-08-01T12:55:13;616.88;;;590.90;;
17197;SDS011;8715;51.010;6.812;2022-08-01T12:57:46;613.15;;;587.20;;
17197;SDS011;8715;51.010;6.812;2022-08-01T13:00:23;612.28;;;586.00;;
17197;SDS011;8715;51.010;6.812;2022-08-01T13:02:59;612.55;;;586.50;;
17197;SDS011;8715;51.010;6.812;2022-08-01T13:08:09;630.88;;;603.58;;
17197;SDS011;8715;51.010;6.812;2022-08-01T13:10:36;618.10;;;592.22;;
17197;SDS011;8715;51.010;6.812;2022-08-01T13:13:01;621.25;;;594.83;;
17197;SDS011;8715;51.010;6.812;2022-08-01T13:15:30;618.47;;;591.92;;
17197;SDS011;8715;51.010;6.812;2022-08-01T13:17:58;623.05;;;596.22;;
17197;SDS011;8715;51.010;6.812;2022-08-01T13:20:28;617.28;;;590.95;;
17197;SDS011;8715;51.010;6.812;2022-08-01T13:22:57;624.60;;;597.65;;
17197;SDS011;8715;51.010;6.812;2022-08-01T13:25:45;620.22;;;593.53;;
17197;SDS011;8715;51.010;6.812;2022-08-01T13:28:15;621.75;;;595.45;;
17197;SDS011;8715;51.010;6.812;2022-08-01T13:30:50;640.92;;;613.45;;
17197;SDS011;8715;51.010;6.812;2022-08-01T13:33:16;622.30;;;595.53;;
17197;SDS011;8715;51.010;6.812;2022-08-01T13:35:41;632.80;;;605.70;;
17197;SDS011;8715;51.010;6.812;2022-08-01T13:38:07;624.95;;;597.92;;
17197;SDS011;8715;51.010;6.812;2022-08-01T13:40:32;634.35;;;607.15;;
17197;SDS011;8715;51.010;6.812;2022-08-01T13:42:58;633.70;;;606.03;;
17197;SDS011;8715;51.010;6.812;2022-08-01T13:45:23;624.67;;;597.57;;
17197;SDS011;8715;51.010;6.812;2022-08-01T13:47:48;630.00;;;603.15;;
17197;SDS011;8715;51.010;6.812;2022-08-01T13:50:14;627.57;;;600.03;;
17197;SDS011;8715;51.010;6.812;2022-08-01T13:52:39;624.25;;;597.17;;
17197;SDS011;8715;51.010;6.812;2022-08-01T13:55:05;622.42;;;595.60;;
17197;SDS011;8715;51.010;6.812;2022-08-01T13:57:31;612.05;;;586.15;;
17197;SDS011;8715;51.010;6.812;2022-08-01T13:59:56;624.47;;;598.03;;
17197;SDS011;8715;51.010;6.812;2022-08-01T14:02:25;621.50;;;595.05;;
17197;SDS011;8715;51.010;6.812;2022-08-01T14:04:51;625.83;;;598.25;;
17197;SDS011;8715;51.010;6.812;2022-08-01T14:07:17;613.10;;;586.88;;
17197;SDS011;8715;51.010;6.812;2022-08-01T14:09:43;619.53;;;593.00;;
17197;SDS011;8715;51.010;6.812;2022-08-01T14:12:09;622.78;;;596.13;;
17197;SDS011;8715;51.010;6.812;2022-08-01T14:14:34;613.08;;;586.80;;
17197;SDS011;8715;51.010;6.812;2022-08-01T14:16:59;624.50;;;597.78;;
17197;SDS011;8715;51.010;6.812;2022-08-01T14:19:25;630.95;;;602.10;;
17197;SDS011;8715;51.010;6.812;2022-08-01T14:21:50;611.77;;;586.03;;
17197;SDS011;8715;51.010;6.812;2022-08-01T14:24:17;631.00;;;603.85;;
17197;SDS011;8715;51.010;6.812;2022-08-01T14:26:42;621.22;;;594.67;;
17197;SDS011;8715;51.010;6.812;2022-08-01T14:29:08;624.20;;;596.55;;
17197;SDS011;8715;51.010;6.812;2022-08-01T14:31:33;616.50;;;589.92;;
17197;SDS011;8715;51.010;6.812;2022-08-01T14:33:58;625.65;;;598.85;;
17197;SDS011;8715;51.010;6.812;2022-08-01T14:36:24;621.30;;;594.85;;
17197;SDS011;8715;51.010;6.812;2022-08-01T14:38:49;620.28;;;593.70;;
17197;SDS011;8715;51.010;6.812;2022-08-01T14:41:15;624.30;;;597.35;;
17197;SDS011;8715;51.010;6.812;2022-08-01T14:43:40;613.13;;;586.90;;
17197;SDS011;8715;51.010;6.812;2022-08-01T14:46:05;622.00;;;595.38;;